sensor_id;sensor_type;location;lat;lon;timestamp;P1;durP1;ratioP1;P2;durP2;ratioP2
12770;SDS011;6449;47.666;9.160;2023-04-16T00:02:11;5.80;;;3.90;;
12770;SDS011;6449;47.666;9.160;2023-04-16T00:07:06;5.30;;;4.60;;
12770;SDS011;6449;47.666;9.160;2023-04-16T00:11:59;5.40;;;4.10;;
12770;SDS011;6449;47.666;9.160;2023-04-16T00:16:54;6.07;;;4.33;;
12770;SDS011;6449;47.666;9.160;2023-04-16T00:21:47;4.70;;;4.17;;
12770;SDS011;6449;47.666;9.160;2023-04-16T00:26:41;5.73;;;4.47;;
12770;SDS011;6449;47.666;9.160;2023-04-16T00:31:36;5.10;;;4.27;;
12770;SDS011;6449;47.666;9.160;2023-04-16T00:36:31;5.63;;;3.80;;
12770;SDS011;6449;47.666;9.160;2023-04-16T00:41:24;4.53;;;4.13;;
12770;SDS011;6449;47.666;9.160;2023-04-16T00:46:18;3.00;;;2.80;;
12770;SDS011;6449;47.666;9.160;2023-04-16T00:51:14;2.50;;;2.30;;
12770;SDS011;6449;47.666;9.160;2023-04-16T00:56:11;2.13;;;2.03;;
12770;SDS011;6449;47.666;9.160;2023-04-16T01:01:07;2.33;;;2.13;;
12770;SDS011;6449;47.666;9.160;2023-04-16T01:06:01;2.30;;;2.10;;
12770;SDS011;6449;47.666;9.160;2023-04-16T01:10:54;1.57;;;1.47;;
12770;SDS011;6449;47.666;9.160;2023-04-16T01:15:49;1.77;;;1.67;;
12770;SDS011;6449;47.666;9.160;2023-04-16T01:20:44;1.90;;;1.80;;
12770;SDS011;6449;47.666;9.160;2023-04-16T01:25:38;2.47;;;2.27;;
12770;SDS011;6449;47.666;9.160;2023-04-16T01:30:31;3.53;;;2.60;;
12770;SDS011;6449;47.666;9.160;2023-04-16T01:35:25;2.53;;;2.33;;
12770;SDS011;6449;47.666;9.160;2023-04-16T01:40:20;2.80;;;2.60;;
12770;SDS011;6449;47.666;9.160;2023-04-16T01:45:13;2.33;;;2.13;;
12770;SDS011;6449;47.666;9.160;2023-04-16T01:50:06;4.00;;;2.77;;
12770;SDS011;6449;47.666;9.160;2023-04-16T01:55:01;4.73;;;4.00;;
12770;SDS011;6449;47.666;9.160;2023-04-16T01:59:57;3.20;;;2.90;;
12770;SDS011;6449;47.666;9.160;2023-04-16T02:04:50;3.10;;;2.80;;
12770;SDS011;6449;47.666;9.160;2023-04-16T02:09:43;2.67;;;2.47;;
12770;SDS011;6449;47.666;9.160;2023-04-16T02:14:36;2.50;;;2.30;;
12770;SDS011;6449;47.666;9.160;2023-04-16T02:19:31;2.00;;;1.90;;
12770;SDS011;6449;47.666;9.160;2023-04-16T02:24:25;2.37;;;2.17;;
12770;SDS011;6449;47.666;9.160;2023-04-16T02:29:18;2.73;;;2.53;;
12770;SDS011;6449;47.666;9.160;2023-04-16T02:34:12;3.67;;;3.37;;
12770;SDS011;6449;47.666;9.160;2023-04-16T02:39:07;4.53;;;4.13;;
12770;SDS011;6449;47.666;9.160;2023-04-16T02:44:01;4.87;;;4.27;;
12770;SDS011;6449;47.666;9.160;2023-04-16T02:48:54;4.57;;;4.17;;
12770;SDS011;6449;47.666;9.160;2023-04-16T02:53:48;5.60;;;4.37;;
12770;SDS011;6449;47.666;9.160;2023-04-16T02:58:42;4.30;;;3.90;;
12770;SDS011;6449;47.666;9.160;2023-04-16T03:03:36;5.60;;;4.13;;
12770;SDS011;6449;47.666;9.160;2023-04-16T03:08:29;5.53;;;4.30;;
12770;SDS011;6449;47.666;9.160;2023-04-16T03:13:22;4.63;;;4.23;;
12770;SDS011;6449;47.666;9.160;2023-04-16T03:18:17;5.23;;;4.73;;
12770;SDS011;6449;47.666;9.160;2023-04-16T03:23:10;5.10;;;4.67;;
12770;SDS011;6449;47.666;9.160;2023-04-16T03:28:04;5.33;;;4.83;;
12770;SDS011;6449;47.666;9.160;2023-04-16T03:32:57;7.17;;;5.53;;
12770;SDS011;6449;47.666;9.160;2023-04-16T03:37:52;6.27;;;5.47;;
12770;SDS011;6449;47.666;9.160;2023-04-16T03:42:45;5.67;;;5.17;;
12770;SDS011;6449;47.666;9.160;2023-04-16T03:47:38;6.97;;;5.00;;
12770;SDS011;6449;47.666;9.160;2023-04-16T03:52:32;5.60;;;5.00;;
12770;SDS011;6449;47.666;9.160;2023-04-16T03:57:26;5.00;;;4.50;;
12770;SDS011;6449;47.666;9.160;2023-04-16T04:02:20;5.53;;;4.43;;
12770;SDS011;6449;47.666;9.160;2023-04-16T04:07:14;4.20;;;3.80;;
12770;SDS011;6449;47.666;9.160;2023-04-16T04:12:08;3.93;;;3.53;;
12770;SDS011;6449;47.666;9.160;2023-04-16T04:17:02;6.60;;;4.57;;
12770;SDS011;6449;47.666;9.160;2023-04-16T04:21:56;5.13;;;4.50;;
12770;SDS011;6449;47.666;9.160;2023-04-16T04:26:49;4.20;;;3.80;;
12770;SDS011;6449;47.666;9.160;2023-04-16T04:31:42;4.47;;;4.07;;
12770;SDS011;6449;47.666;9.160;2023-04-16T04:36:37;4.87;;;4.40;;
12770;SDS011;6449;47.666;9.160;2023-04-16T04:41:31;5.37;;;4.87;;
12770;SDS011;6449;47.666;9.160;2023-04-16T04:46:24;6.97;;;6.07;;
12770;SDS011;6449;47.666;9.160;2023-04-16T04:51:17;7.47;;;6.70;;
12770;SDS011;6449;47.666;9.160;2023-04-16T04:56:12;7.73;;;6.37;;
12770;SDS011;6449;47.666;9.160;2023-04-16T05:01:05;8.90;;;7.17;;
12770;SDS011;6449;47.666;9.160;2023-04-16T05:05:59;7.13;;;6.47;;
12770;SDS011;6449;47.666;9.160;2023-04-16T05:10:52;6.90;;;6.20;;
12770;SDS011;6449;47.666;9.160;2023-04-16T05:15:47;8.07;;;7.23;;
12770;SDS011;6449;47.666;9.160;2023-04-16T05:20:40;7.30;;;6.60;;
12770;SDS011;6449;47.666;9.160;2023-04-16T05:25:34;7.83;;;6.60;;
12770;SDS011;6449;47.666;9.160;2023-04-16T05:30:28;7.23;;;6.53;;
12770;SDS011;6449;47.666;9.160;2023-04-16T05:35:22;7.77;;;7.03;;
12770;SDS011;6449;47.666;9.160;2023-04-16T05:40:16;8.80;;;6.83;;
12770;SDS011;6449;47.666;9.160;2023-04-16T05:45:09;7.37;;;6.67;;
12770;SDS011;6449;47.666;9.160;2023-04-16T05:50:03;7.87;;;6.67;;
12770;SDS011;6449;47.666;9.160;2023-04-16T05:54:59;7.73;;;6.93;;
12770;SDS011;6449;47.666;9.160;2023-04-16T05:59:52;7.77;;;6.97;;
12770;SDS011;6449;47.666;9.160;2023-04-16T06:04:46;6.97;;;6.27;;
12770;SDS011;6449;47.666;9.160;2023-04-16T06:09:40;7.67;;;6.17;;
12770;SDS011;6449;47.666;9.160;2023-04-16T06:14:35;6.90;;;6.13;;
12770;SDS011;6449;47.666;9.160;2023-04-16T06:19:28;6.17;;;5.57;;
12770;SDS011;6449;47.666;9.160;2023-04-16T06:24:21;5.60;;;5.10;;
12770;SDS011;6449;47.666;9.160;2023-04-16T06:29:15;6.27;;;5.73;;
12770;SDS011;6449;47.666;9.160;2023-04-16T06:34:09;5.60;;;5.00;;
12770;SDS011;6449;47.666;9.160;2023-04-16T06:39:03;4.70;;;4.30;;
12770;SDS011;6449;47.666;9.160;2023-04-16T06:43:56;4.63;;;4.23;;
12770;SDS011;6449;47.666;9.160;2023-04-16T06:48:49;4.80;;;4.40;;
12770;SDS011;6449;47.666;9.160;2023-04-16T06:53:44;5.03;;;4.50;;
12770;SDS011;6449;47.666;9.160;2023-04-16T06:58:38;4.47;;;3.93;;
12770;SDS011;6449;47.666;9.160;2023-04-16T07:03:31;4.87;;;4.00;;
12770;SDS011;6449;47.666;9.160;2023-04-16T07:08:24;5.67;;;5.03;;
12770;SDS011;6449;47.666;9.160;2023-04-16T07:13:19;3.77;;;3.47;;
12770;SDS011;6449;47.666;9.160;2023-04-16T07:18:13;4.03;;;3.63;;
12770;SDS011;6449;47.666;9.160;2023-04-16T07:23:07;3.60;;;3.30;;
12770;SDS011;6449;47.666;9.160;2023-04-16T07:28:00;3.37;;;3.07;;
12770;SDS011;6449;47.666;9.160;2023-04-16T07:32:56;4.03;;;3.13;;
12770;SDS011;6449;47.666;9.160;2023-04-16T07:37:49;3.97;;;3.57;;
12770;SDS011;6449;47.666;9.160;2023-04-16T07:42:43;3.40;;;3.10;;
12770;SDS011;6449;47.666;9.160;2023-04-16T07:47:36;3.50;;;3.13;;
12770;SDS011;6449;47.666;9.160;2023-04-16T07:52:31;3.93;;;3.43;;
12770;SDS011;6449;47.666;9.160;2023-04-16T07:57:24;3.87;;;3.57;;
12770;SDS011;6449;47.666;9.160;2023-04-16T08:02:18;3.77;;;3.47;;
12770;SDS011;6449;47.666;9.160;2023-04-16T08:07:11;3.27;;;2.97;;
12770;SDS011;6449;47.666;9.160;2023-04-16T08:12:06;4.17;;;3.03;;
12770;SDS011;6449;47.666;9.160;2023-04-16T08:16:59;3.30;;;3.00;;
12770;SDS011;6449;47.666;9.160;2023-04-16T08:21:52;2.77;;;2.57;;
12770;SDS011;6449;47.666;9.160;2023-04-16T08:26:47;2.60;;;2.40;;
12770;SDS011;6449;47.666;9.160;2023-04-16T08:31:42;2.63;;;2.43;;
12770;SDS011;6449;47.666;9.160;2023-04-16T08:36:36;2.50;;;2.30;;
12770;SDS011;6449;47.666;9.160;2023-04-16T08:41:29;3.40;;;2.60;;
12770;SDS011;6449;47.666;9.160;2023-04-16T08:46:25;3.13;;;2.80;;
12770;SDS011;6449;47.666;9.160;2023-04-16T08:51:22;2.87;;;2.40;;
12770;SDS011;6449;47.666;9.160;2023-04-16T08:56:21;3.23;;;2.60;;
12770;SDS011;6449;47.666;9.160;2023-04-16T09:01:16;3.27;;;2.97;;
12770;SDS011;6449;47.666;9.160;2023-04-16T09:06:11;3.23;;;2.90;;
12770;SDS011;6449;47.666;9.160;2023-04-16T09:11:06;2.93;;;2.60;;
12770;SDS011;6449;47.666;9.160;2023-04-16T09:15:59;3.80;;;3.40;;
12770;SDS011;6449;47.666;9.160;2023-04-16T09:20:53;2.93;;;2.73;;
12770;SDS011;6449;47.666;9.160;2023-04-16T09:25:47;3.30;;;3.00;;
12770;SDS011;6449;47.666;9.160;2023-04-16T09:30:42;4.13;;;3.20;;
12770;SDS011;6449;47.666;9.160;2023-04-16T09:35:43;3.50;;;3.20;;
12770;SDS011;6449;47.666;9.160;2023-04-16T09:40:38;4.17;;;3.73;;
12770;SDS011;6449;47.666;9.160;2023-04-16T09:45:31;3.67;;;3.10;;
12770;SDS011;6449;47.666;9.160;2023-04-16T09:50:45;3.23;;;2.93;;
12770;SDS011;6449;47.666;9.160;2023-04-16T09:55:43;3.13;;;2.83;;
12770;SDS011;6449;47.666;9.160;2023-04-16T10:00:37;3.00;;;2.70;;
12770;SDS011;6449;47.666;9.160;2023-04-16T10:05:35;3.30;;;3.00;;
12770;SDS011;6449;47.666;9.160;2023-04-16T10:10:28;4.67;;;3.97;;
12770;SDS011;6449;47.666;9.160;2023-04-16T10:15:23;3.37;;;3.07;;
12770;SDS011;6449;47.666;9.160;2023-04-16T10:20:17;3.23;;;2.80;;
12770;SDS011;6449;47.666;9.160;2023-04-16T10:25:12;3.07;;;2.77;;
12770;SDS011;6449;47.666;9.160;2023-04-16T10:30:07;3.30;;;3.00;;
12770;SDS011;6449;47.666;9.160;2023-04-16T10:35:04;3.27;;;2.70;;
12770;SDS011;6449;47.666;9.160;2023-04-16T10:39:58;3.20;;;2.67;;
12770;SDS011;6449;47.666;9.160;2023-04-16T10:44:53;2.90;;;2.70;;
12770;SDS011;6449;47.666;9.160;2023-04-16T10:49:50;2.50;;;2.30;;
12770;SDS011;6449;47.666;9.160;2023-04-16T10:54:45;3.03;;;2.50;;
12770;SDS011;6449;47.666;9.160;2023-04-16T10:59:40;2.87;;;2.60;;
12770;SDS011;6449;47.666;9.160;2023-04-16T11:04:36;3.13;;;2.83;;
12770;SDS011;6449;47.666;9.160;2023-04-16T11:09:53;2.63;;;2.43;;
12770;SDS011;6449;47.666;9.160;2023-04-16T11:15:03;3.03;;;2.53;;
12770;SDS011;6449;47.666;9.160;2023-04-16T11:20:01;3.17;;;2.87;;
12770;SDS011;6449;47.666;9.160;2023-04-16T11:25:09;3.60;;;2.80;;
12770;SDS011;6449;47.666;9.160;2023-04-16T11:30:03;2.87;;;2.67;;
12770;SDS011;6449;47.666;9.160;2023-04-16T11:35:02;2.83;;;2.57;;
12770;SDS011;6449;47.666;9.160;2023-04-16T11:39:58;3.20;;;2.83;;
12770;SDS011;6449;47.666;9.160;2023-04-16T11:44:52;3.43;;;3.13;;
12770;SDS011;6449;47.666;9.160;2023-04-16T11:49:46;3.07;;;2.77;;
12770;SDS011;6449;47.666;9.160;2023-04-16T11:54:41;4.40;;;4.00;;
12770;SDS011;6449;47.666;9.160;2023-04-16T11:59:45;4.43;;;3.83;;
12770;SDS011;6449;47.666;9.160;2023-04-16T12:04:53;3.60;;;3.30;;
12770;SDS011;6449;47.666;9.160;2023-04-16T12:09:48;4.47;;;3.87;;
12770;SDS011;6449;47.666;9.160;2023-04-16T12:14:48;4.30;;;3.90;;
12770;SDS011;6449;47.666;9.160;2023-04-16T12:19:49;4.43;;;3.53;;
12770;SDS011;6449;47.666;9.160;2023-04-16T12:30:33;3.57;;;3.23;;
12770;SDS011;6449;47.666;9.160;2023-04-16T12:35:42;3.87;;;3.30;;
12770;SDS011;6449;47.666;9.160;2023-04-16T12:40:36;4.03;;;3.63;;
12770;SDS011;6449;47.666;9.160;2023-04-16T12:45:33;4.43;;;4.00;;
12770;SDS011;6449;47.666;9.160;2023-04-16T12:50:29;4.37;;;3.97;;
12770;SDS011;6449;47.666;9.160;2023-04-16T12:55:23;5.63;;;4.90;;
12770;SDS011;6449;47.666;9.160;2023-04-16T13:00:18;5.47;;;4.83;;
12770;SDS011;6449;47.666;9.160;2023-04-16T13:05:11;6.00;;;5.20;;
12770;SDS011;6449;47.666;9.160;2023-04-16T13:10:07;6.90;;;5.50;;
12770;SDS011;6449;47.666;9.160;2023-04-16T13:15:01;6.87;;;5.80;;
12770;SDS011;6449;47.666;9.160;2023-04-16T13:19:57;5.50;;;5.00;;
12770;SDS011;6449;47.666;9.160;2023-04-16T13:25:07;5.80;;;5.30;;
12770;SDS011;6449;47.666;9.160;2023-04-16T13:30:06;6.77;;;5.90;;
12770;SDS011;6449;47.666;9.160;2023-04-16T13:35:05;6.13;;;5.53;;
12770;SDS011;6449;47.666;9.160;2023-04-16T13:40:01;6.87;;;6.03;;
12770;SDS011;6449;47.666;9.160;2023-04-16T13:44:54;7.93;;;6.60;;
12770;SDS011;6449;47.666;9.160;2023-04-16T13:49:48;7.87;;;6.93;;
12770;SDS011;6449;47.666;9.160;2023-04-16T13:54:47;8.90;;;7.87;;
12770;SDS011;6449;47.666;9.160;2023-04-16T13:59:41;10.40;;;9.00;;
12770;SDS011;6449;47.666;9.160;2023-04-16T14:04:34;11.23;;;9.57;;
12770;SDS011;6449;47.666;9.160;2023-04-16T14:09:31;11.43;;;9.93;;
12770;SDS011;6449;47.666;9.160;2023-04-16T14:14:26;11.57;;;10.37;;
12770;SDS011;6449;47.666;9.160;2023-04-16T14:19:25;15.30;;;12.60;;
12770;SDS011;6449;47.666;9.160;2023-04-16T14:24:23;15.90;;;13.77;;
12770;SDS011;6449;47.666;9.160;2023-04-16T14:29:16;16.20;;;13.03;;
12770;SDS011;6449;47.666;9.160;2023-04-16T14:34:16;16.60;;;13.73;;
12770;SDS011;6449;47.666;9.160;2023-04-16T14:39:15;16.57;;;13.87;;
12770;SDS011;6449;47.666;9.160;2023-04-16T14:44:18;16.60;;;14.10;;
12770;SDS011;6449;47.666;9.160;2023-04-16T14:49:20;19.17;;;14.20;;
12770;SDS011;6449;47.666;9.160;2023-04-16T14:54:29;16.00;;;13.37;;
12770;SDS011;6449;47.666;9.160;2023-04-16T14:59:27;14.70;;;12.87;;
12770;SDS011;6449;47.666;9.160;2023-04-16T15:04:37;15.67;;;13.13;;
12770;SDS011;6449;47.666;9.160;2023-04-16T15:09:43;15.07;;;13.20;;
12770;SDS011;6449;47.666;9.160;2023-04-16T15:14:37;15.60;;;13.33;;
12770;SDS011;6449;47.666;9.160;2023-04-16T15:19:38;15.67;;;13.27;;
12770;SDS011;6449;47.666;9.160;2023-04-16T15:24:57;16.77;;;13.90;;
12770;SDS011;6449;47.666;9.160;2023-04-16T15:29:53;15.83;;;13.17;;
12770;SDS011;6449;47.666;9.160;2023-04-16T15:34:48;14.93;;;12.53;;
12770;SDS011;6449;47.666;9.160;2023-04-16T15:39:43;16.07;;;13.30;;
12770;SDS011;6449;47.666;9.160;2023-04-16T15:44:36;16.43;;;14.10;;
12770;SDS011;6449;47.666;9.160;2023-04-16T15:49:30;17.97;;;14.57;;
12770;SDS011;6449;47.666;9.160;2023-04-16T15:54:25;17.83;;;14.80;;
12770;SDS011;6449;47.666;9.160;2023-04-16T15:59:18;18.80;;;14.73;;
12770;SDS011;6449;47.666;9.160;2023-04-16T16:04:17;17.03;;;13.80;;
12770;SDS011;6449;47.666;9.160;2023-04-16T16:09:15;15.23;;;13.63;;
12770;SDS011;6449;47.666;9.160;2023-04-16T16:14:17;15.27;;;12.87;;
12770;SDS011;6449;47.666;9.160;2023-04-16T16:19:10;14.67;;;11.73;;
12770;SDS011;6449;47.666;9.160;2023-04-16T16:24:04;16.17;;;12.27;;
12770;SDS011;6449;47.666;9.160;2023-04-16T16:29:00;13.57;;;10.80;;
12770;SDS011;6449;47.666;9.160;2023-04-16T16:34:00;12.67;;;10.43;;
12770;SDS011;6449;47.666;9.160;2023-04-16T16:39:07;14.43;;;11.03;;
12770;SDS011;6449;47.666;9.160;2023-04-16T16:44:01;13.20;;;10.27;;
12770;SDS011;6449;47.666;9.160;2023-04-16T16:48:54;13.83;;;10.73;;
12770;SDS011;6449;47.666;9.160;2023-04-16T16:53:50;13.77;;;11.30;;
12770;SDS011;6449;47.666;9.160;2023-04-16T16:58:44;13.27;;;11.17;;
12770;SDS011;6449;47.666;9.160;2023-04-16T17:03:37;14.40;;;11.60;;
12770;SDS011;6449;47.666;9.160;2023-04-16T17:08:31;15.07;;;11.90;;
12770;SDS011;6449;47.666;9.160;2023-04-16T17:13:26;13.23;;;10.70;;
12770;SDS011;6449;47.666;9.160;2023-04-16T17:18:20;12.63;;;10.70;;
12770;SDS011;6449;47.666;9.160;2023-04-16T17:23:14;13.10;;;10.50;;
12770;SDS011;6449;47.666;9.160;2023-04-16T17:28:07;12.87;;;10.20;;
12770;SDS011;6449;47.666;9.160;2023-04-16T17:33:02;13.50;;;10.87;;
12770;SDS011;6449;47.666;9.160;2023-04-16T17:37:56;14.90;;;11.37;;
12770;SDS011;6449;47.666;9.160;2023-04-16T17:42:52;13.67;;;10.27;;
12770;SDS011;6449;47.666;9.160;2023-04-16T17:47:47;13.23;;;10.13;;
12770;SDS011;6449;47.666;9.160;2023-04-16T17:52:41;14.00;;;10.07;;
12770;SDS011;6449;47.666;9.160;2023-04-16T17:57:35;9.93;;;8.67;;
12770;SDS011;6449;47.666;9.160;2023-04-16T18:02:28;16.17;;;11.33;;
12770;SDS011;6449;47.666;9.160;2023-04-16T18:07:22;12.57;;;8.43;;
12770;SDS011;6449;47.666;9.160;2023-04-16T18:12:20;11.10;;;8.80;;
12770;SDS011;6449;47.666;9.160;2023-04-16T18:17:13;12.40;;;9.10;;
12770;SDS011;6449;47.666;9.160;2023-04-16T18:22:08;9.17;;;7.80;;
12770;SDS011;6449;47.666;9.160;2023-04-16T18:27:01;9.93;;;8.17;;
12770;SDS011;6449;47.666;9.160;2023-04-16T18:31:56;8.60;;;7.70;;
12770;SDS011;6449;47.666;9.160;2023-04-16T18:36:49;9.03;;;7.60;;
12770;SDS011;6449;47.666;9.160;2023-04-16T18:41:56;9.03;;;7.57;;
12770;SDS011;6449;47.666;9.160;2023-04-16T18:46:49;10.30;;;8.23;;
12770;SDS011;6449;47.666;9.160;2023-04-16T18:51:44;14.60;;;8.77;;
12770;SDS011;6449;47.666;9.160;2023-04-16T18:56:37;10.20;;;7.97;;
12770;SDS011;6449;47.666;9.160;2023-04-16T19:01:33;10.60;;;8.30;;
12770;SDS011;6449;47.666;9.160;2023-04-16T19:06:27;11.63;;;7.63;;
12770;SDS011;6449;47.666;9.160;2023-04-16T19:11:23;9.77;;;7.73;;
12770;SDS011;6449;47.666;9.160;2023-04-16T19:16:17;7.17;;;6.03;;
12770;SDS011;6449;47.666;9.160;2023-04-16T19:21:12;7.33;;;6.17;;
12770;SDS011;6449;47.666;9.160;2023-04-16T19:26:06;10.03;;;6.63;;
12770;SDS011;6449;47.666;9.160;2023-04-16T19:31:02;9.23;;;6.83;;
12770;SDS011;6449;47.666;9.160;2023-04-16T19:36:02;8.80;;;5.50;;
12770;SDS011;6449;47.666;9.160;2023-04-16T19:40:59;6.63;;;5.70;;
12770;SDS011;6449;47.666;9.160;2023-04-16T19:45:58;7.83;;;5.87;;
12770;SDS011;6449;47.666;9.160;2023-04-16T19:50:53;6.23;;;5.43;;
12770;SDS011;6449;47.666;9.160;2023-04-16T19:55:47;6.73;;;6.00;;
12770;SDS011;6449;47.666;9.160;2023-04-16T20:00:40;8.17;;;5.17;;
12770;SDS011;6449;47.666;9.160;2023-04-16T20:05:37;7.53;;;5.10;;
12770;SDS011;6449;47.666;9.160;2023-04-16T20:10:32;6.73;;;5.40;;
12770;SDS011;6449;47.666;9.160;2023-04-16T20:15:26;5.47;;;4.87;;
12770;SDS011;6449;47.666;9.160;2023-04-16T20:20:19;7.00;;;5.70;;
12770;SDS011;6449;47.666;9.160;2023-04-16T20:25:13;7.50;;;5.17;;
12770;SDS011;6449;47.666;9.160;2023-04-16T20:30:11;6.73;;;5.10;;
12770;SDS011;6449;47.666;9.160;2023-04-16T20:35:06;6.50;;;5.43;;
12770;SDS011;6449;47.666;9.160;2023-04-16T20:40:02;6.20;;;5.10;;
12770;SDS011;6449;47.666;9.160;2023-04-16T20:44:58;8.20;;;5.40;;
12770;SDS011;6449;47.666;9.160;2023-04-16T20:49:52;7.50;;;5.80;;
12770;SDS011;6449;47.666;9.160;2023-04-16T20:54:46;8.63;;;6.57;;
12770;SDS011;6449;47.666;9.160;2023-04-16T20:59:42;6.27;;;5.10;;
12770;SDS011;6449;47.666;9.160;2023-04-16T21:04:35;6.03;;;4.67;;
12770;SDS011;6449;47.666;9.160;2023-04-16T21:09:30;5.47;;;4.73;;
12770;SDS011;6449;47.666;9.160;2023-04-16T21:14:23;6.00;;;5.13;;
12770;SDS011;6449;47.666;9.160;2023-04-16T21:19:17;7.03;;;5.23;;
12770;SDS011;6449;47.666;9.160;2023-04-16T21:24:10;5.13;;;4.57;;
12770;SDS011;6449;47.666;9.160;2023-04-16T21:29:05;5.80;;;5.13;;
12770;SDS011;6449;47.666;9.160;2023-04-16T21:33:58;7.70;;;4.90;;
12770;SDS011;6449;47.666;9.160;2023-04-16T21:38:52;6.23;;;4.90;;
12770;SDS011;6449;47.666;9.160;2023-04-16T21:43:45;7.40;;;6.17;;
12770;SDS011;6449;47.666;9.160;2023-04-16T21:48:40;9.23;;;6.50;;
12770;SDS011;6449;47.666;9.160;2023-04-16T21:53:33;8.70;;;7.23;;
12770;SDS011;6449;47.666;9.160;2023-04-16T21:58:27;10.90;;;7.23;;
12770;SDS011;6449;47.666;9.160;2023-04-16T22:03:20;9.23;;;6.70;;
12770;SDS011;6449;47.666;9.160;2023-04-16T22:08:18;8.20;;;5.87;;
12770;SDS011;6449;47.666;9.160;2023-04-16T22:13:15;7.50;;;5.80;;
12770;SDS011;6449;47.666;9.160;2023-04-16T22:18:08;5.67;;;5.17;;
12770;SDS011;6449;47.666;9.160;2023-04-16T22:23:02;5.83;;;4.83;;
12770;SDS011;6449;47.666;9.160;2023-04-16T22:27:57;6.00;;;4.90;;
12770;SDS011;6449;47.666;9.160;2023-04-16T22:32:51;6.03;;;5.00;;
12770;SDS011;6449;47.666;9.160;2023-04-16T22:37:44;6.87;;;5.17;;
12770;SDS011;6449;47.666;9.160;2023-04-16T22:42:37;5.10;;;4.60;;
12770;SDS011;6449;47.666;9.160;2023-04-16T22:47:32;9.20;;;5.03;;
12770;SDS011;6449;47.666;9.160;2023-04-16T22:52:25;5.80;;;4.53;;
12770;SDS011;6449;47.666;9.160;2023-04-16T22:57:19;6.10;;;4.90;;
12770;SDS011;6449;47.666;9.160;2023-04-16T23:02:15;7.40;;;4.87;;
12770;SDS011;6449;47.666;9.160;2023-04-16T23:07:10;6.13;;;4.60;;
12770;SDS011;6449;47.666;9.160;2023-04-16T23:12:03;7.20;;;5.07;;
12770;SDS011;6449;47.666;9.160;2023-04-16T23:16:57;6.43;;;4.83;;
12770;SDS011;6449;47.666;9.160;2023-04-16T23:21:51;6.80;;;5.00;;
12770;SDS011;6449;47.666;9.160;2023-04-16T23:26:46;5.33;;;4.43;;
12770;SDS011;6449;47.666;9.160;2023-04-16T23:31:39;6.73;;;5.03;;
12770;SDS011;6449;47.666;9.160;2023-04-16T23:36:33;5.97;;;4.30;;
12770;SDS011;6449;47.666;9.160;2023-04-16T23:41:26;5.27;;;4.27;;
12770;SDS011;6449;47.666;9.160;2023-04-16T23:46:21;5.50;;;4.20;;
12770;SDS011;6449;47.666;9.160;2023-04-16T23:51:14;5.97;;;5.13;;
12770;SDS011;6449;47.666;9.160;2023-04-16T23:56:07;7.77;;;5.30;;
